Terminal Aerodrome Forecast
Issued by NWS Houston/Galveston TX

Home | Current Version | Previous Version | Text Only | Print | Product List | Glossary On
Versions: 1 2 3 4 5 6 7 8 9 10 11 12 13 14 15 16 17 18 19 20 21 22 23 24 25 26 27 28 29 30
000
FTUS44 KHGX 232321
TAFHOU
TAF
KHOU 232321Z 2400/2424 15010KT P6SM SCT040 SCT250
     FM240400 16006KT P6SM SCT015
     FM240900 17005KT P6SM BKN015
     FM241500 18005KT P6SM VCSH BKN025
     FM241800 15006KT P6SM VCTS BKN040CB BKN250
     FM242300 16008KT P6SM BKN040 BKN100=

USA.gov is the U.S. government's official web portal to all federal, state and local government web resources and services.